Nawabshah, Pakistan
Current Conditions -  °F | °C
As of 1:00 AM on Wednesday 22 Oct 2014 (Local Time) from OPNH Reporting Station
Haze Haze  
Wind Chill: 75°   Ceiling: Unl
Heat Index: 75°   Visibility: 3mi
Dew Point: 61°   Wind: 0mph
Humidity: 61%   Direction: NA
Pressure: 29.91"   Gusts: NA
Location:  26.24°N, 68.4°E
Report Text: OPNH 212000Z 00000KT 5000M HZ NSC 24/16 Q1013
Loading
Personal Weather Stations






























Interactive Weather Map
Tropical Storm Tracking
New forecast layout! Learn more

10-Day Weather Forecast

Advertisements
Track Severe Weather on mobile